Clear Creek, Iowa
Current Conditions -  °F | °C
As of 6:15 PM on Friday 28 Nov 2014 (Local Time) from KAWG Reporting Station
Clear Clear  
Wind Chill: 23°   Ceiling: Unl
Heat Index: 30°   Visibility: 8mi
Dew Point: 30°   Wind: 7mph
Humidity: 100%   Direction: 120°ESE
Pressure: 29.83"   Gusts: NA
Location:  41.3169°N, 91.9953°W
Report Text: KAWG 290015Z AUTO 12006KT 8SM CLR M01/M01 A2983 RMK AO2
Loading
Personal Weather Stations






























Interactive Weather Map New forecast layout! Learn more

10-Day Weather Forecast

Advertisements
Track Severe Weather on mobile